logo
Rechercher aéroport 
image banner adimage banner adimage banner ad
image banner ad

MRIS - Las Islas

Situé à Sarapiqui, Costa Rica

ICAO - MRIS, IATA -

Données fournies par Airmate  

Information générale

Coordonnées: N10°33'27" W83°58'18"
Élévation : 98 feet MSL.
 
Voir autres Aéroports à Heredia

Données opérationnelles

Special qualification required
Heure actuelle UTC:
Heure actuelle locale:
Météo à : MROC - Juan Santamaria Intl ( 68 km )
METAR: MROC 230000Z VRB02KT 9999 FEW040 BKN140 25/20 A3003 NOSIG
TAF: MROC 222345Z 2300/2324 11007KT 9999 FEW030 TX31/2319Z TN20/2311Z TEMPO 2300/2303 22004KT BKN015 BECMG 2317/2320 25008KT TEMPO 2319/2323 TSRA FEW015CB
Voir NOTAMs / SUP AIP / TFR affectant cet aéroport [VIEW]
Fréquences de communication: [VIEW]

Pistes:

Identifiant RWYQFULongueur (ft)Largeur (ft)SurfaceLDA (ft)
0900UNK
2700UNK

Coordonnées de l'aéroport

Adresse: Sarapiqui Costa Rica

Vue satellite de MRIS